Time;durP1;ratioP1;P1;durP2;ratioP2;P2;SDS_P1;SDS_P2;PMS_P1;PMS_P2;Temp;Humidity;BMP_temperature;BMP_pressure;BME280_temperature;BME280_humidity;BME280_pressure;Samples;Min_cycle;Max_cycle;Signal;HPM_P1;HPM_P2
2022/03/06 00:01:04;;;;;;;24.63;10.05;;;-0.70;92.40;;;;;;5054435;28;20392;-56
2022/03/06 00:03:30;;;;;;;26.90;10.75;;;-0.80;92.10;;;;;;5051554;28;20520;-56
2022/03/06 00:05:56;;;;;;;26.10;10.30;;;-0.70;93.10;;;;;;5056760;28;20712;-56
2022/03/06 00:08:22;;;;;;;22.38;10.05;;;-0.30;93.50;;;;;;5069700;28;20404;-56
2022/03/06 00:10:48;;;;;;;21.93;10.80;;;-0.50;93.10;;;;;;5053821;28;20387;-55
2022/03/06 00:13:14;;;;;;;22.08;9.80;;;-0.50;93.20;;;;;;5072176;28;20384;-56
2022/03/06 00:15:41;;;;;;;22.58;10.70;;;-0.40;93.00;;;;;;5071460;28;20379;-55
2022/03/06 00:18:07;;;;;;;19.87;10.20;;;-0.20;93.20;;;;;;5072037;28;20775;-55
2022/03/06 00:20:33;;;;;;;27.80;10.63;;;-0.20;93.20;;;;;;5071763;28;20371;-56
2022/03/06 00:22:59;;;;;;;25.10;11.00;;;-0.20;93.50;;;;;;5071999;28;20772;-55
2022/03/06 00:25:24;;;;;;;22.70;10.70;;;-0.20;93.70;;;;;;5071483;28;20843;-56
2022/03/06 00:27:50;;;;;;;19.70;9.30;;;1.10;94.30;;;;;;5070896;28;20864;-55
2022/03/06 00:30:16;;;;;;;20.00;10.20;;;0.00;93.70;;;;;;5072704;28;20411;-55
2022/03/06 00:32:42;;;;;;;22.63;11.00;;;0.10;93.70;;;;;;5071811;28;20406;-55
2022/03/06 00:35:08;;;;;;;21.17;10.43;;;0.00;93.70;;;;;;5071872;28;21080;-54
2022/03/06 00:37:34;;;;;;;23.35;10.68;;;0.70;94.10;;;;;;5070622;28;20446;-53
2022/03/06 00:40:00;;;;;;;25.17;10.65;;;0.10;93.70;;;;;;5061323;28;20730;-55
2022/03/06 00:42:26;;;;;;;20.10;10.25;;;0.10;93.70;;;;;;5059827;28;20407;-54
2022/03/06 00:44:52;;;;;;;20.93;9.83;;;0.10;93.80;;;;;;5071954;28;20899;-54
2022/03/06 00:47:18;;;;;;;21.87;10.43;;;0.10;93.70;;;;;;5072055;28;20806;-54
2022/03/06 00:49:44;;;;;;;21.63;10.20;;;0.20;93.60;;;;;;5064803;28;20376;-54
2022/03/06 00:52:09;;;;;;;22.10;10.80;;;0.10;93.60;;;;;;5051810;28;20439;-54
2022/03/06 00:54:35;;;;;;;22.35;10.80;;;0.10;93.60;;;;;;5050922;28;20806;-54
2022/03/06 00:57:01;;;;;;;20.75;10.02;;;0.10;93.80;;;;;;5051175;28;20460;-54
2022/03/06 00:59:32;;;;;;;19.80;9.90;;;0.10;94.00;;;;;;5050766;28;20386;-54
2022/03/06 01:01:59;;;;;;;20.95;10.20;;;0.50;94.10;;;;;;5051261;28;20420;-54
2022/03/06 01:04:25;;;;;;;22.05;10.25;;;0.20;94.10;;;;;;5054600;28;20410;-54
2022/03/06 01:06:51;;;;;;;22.77;9.90;;;0.10;94.30;;;;;;5059099;28;20398;-54
2022/03/06 01:09:16;;;;;;;20.70;10.33;;;1.00;95.10;;;;;;5050890;28;20377;-54
2022/03/06 01:11:42;;;;;;;24.30;10.80;;;0.00;94.90;;;;;;5060127;28;20399;-54
2022/03/06 01:14:08;;;;;;;22.80;11.35;;;-0.10;94.60;;;;;;5053795;28;20404;-54
2022/03/06 01:16:33;;;;;;;24.98;11.20;;;0.80;95.10;;;;;;5068427;28;20387;-54
2022/03/06 01:18:59;;;;;;;24.50;11.50;;;-0.10;95.10;;;;;;5051215;28;20837;-54
2022/03/06 01:21:24;;;;;;;24.07;10.93;;;-0.20;95.40;;;;;;5050730;28;20836;-54
2022/03/06 01:23:50;;;;;;;24.42;11.73;;;-0.40;95.30;;;;;;5051087;28;20434;-54
2022/03/06 01:26:19;;;;;;;24.70;11.80;;;0.10;96.10;;;;;;5051080;28;20436;-55
2022/03/06 01:28:44;;;;;;;23.58;11.40;;;-0.40;96.30;;;;;;5051156;28;20392;-54
2022/03/06 01:31:11;;;;;;;21.90;10.10;;;-0.40;96.70;;;;;;5050711;28;20378;-54
2022/03/06 01:33:37;;;;;;;24.40;11.40;;;-0.40;97.10;;;;;;5054726;28;20405;-54
2022/03/06 01:36:03;;;;;;;25.00;11.57;;;-0.50;96.90;;;;;;5070206;28;20429;-54
2022/03/06 01:38:29;;;;;;;25.27;12.00;;;-0.60;97.20;;;;;;5070044;28;20418;-54
2022/03/06 01:40:55;;;;;;;23.07;10.70;;;-0.70;97.50;;;;;;5052332;28;20423;-54
2022/03/06 01:43:20;;;;;;;20.50;10.10;;;-0.60;97.80;;;;;;5070555;28;20461;-55
2022/03/06 01:45:46;;;;;;;25.48;11.07;;;-0.60;97.90;;;;;;5064956;28;20893;-54
2022/03/06 01:48:12;;;;;;;24.13;10.20;;;-0.60;98.20;;;;;;5055312;28;21346;-54
2022/03/06 01:50:38;;;;;;;23.30;10.27;;;-0.70;98.10;;;;;;5068890;28;20402;-54
2022/03/06 01:53:07;;;;;;;23.73;11.73;;;-0.70;98.20;;;;;;5070710;28;20476;-54
2022/03/06 01:55:33;;;;;;;28.00;13.73;;;-0.70;98.30;;;;;;5069609;28;20846;-54
2022/03/06 01:58:01;;;;;;;30.02;13.52;;;-0.80;98.30;;;;;;5069021;28;20780;-54
2022/03/06 02:00:30;;;;;;;24.90;11.77;;;-0.70;98.70;;;;;;5055408;28;20372;-55
2022/03/06 02:03:00;;;;;;;30.42;15.82;;;-0.70;99.10;;;;;;5069950;28;20396;-54
2022/03/06 02:05:27;;;;;;;25.25;14.05;;;-0.50;99.50;;;;;;5055394;28;20385;-54
2022/03/06 02:07:53;;;;;;;30.48;15.38;;;-0.40;99.40;;;;;;5050095;28;20439;-54
2022/03/06 02:10:19;;;;;;;23.35;12.00;;;-0.40;98.90;;;;;;5050329;28;20386;-54
2022/03/06 02:12:46;;;;;;;26.55;12.20;;;-0.40;98.50;;;;;;5049838;28;20381;-54
2022/03/06 02:15:13;;;;;;;24.17;12.60;;;-0.50;98.40;;;;;;5049929;28;20377;-54
2022/03/06 02:17:40;;;;;;;24.65;10.88;;;-0.60;98.60;;;;;;5031774;28;20426;-55
2022/03/06 02:20:10;;;;;;;24.45;12.07;;;-0.60;99.10;;;;;;5050126;28;20389;-55
2022/03/06 02:22:37;;;;;;;23.50;11.38;;;-0.40;99.40;;;;;;5049031;28;20865;-55
2022/03/06 02:25:09;;;;;;;24.43;11.20;;;-0.30;99.40;;;;;;5055651;28;20393;-54
2022/03/06 02:27:35;;;;;;;23.08;11.13;;;-0.10;99.50;;;;;;5055661;28;20384;-54
2022/03/06 02:30:05;;;;;;;24.27;11.43;;;0.90;99.80;;;;;;5070338;28;20429;-54
2022/03/06 02:32:31;;;;;;;23.48;12.18;;;-0.20;99.00;;;;;;5049402;28;20408;-55
2022/03/06 02:34:57;;;;;;;23.85;11.55;;;0.00;99.20;;;;;;5050130;28;20857;-54
2022/03/06 02:37:22;;;;;;;26.00;11.47;;;0.00;99.20;;;;;;5049095;28;20472;-55
2022/03/06 02:39:48;;;;;;;21.77;10.87;;;0.10;99.00;;;;;;5050050;28;20720;-55
2022/03/06 02:42:28;;;;;;;23.05;11.60;;;0.10;98.80;;;;;;5049468;28;20767;-55
2022/03/06 02:44:55;;;;;;;22.25;10.20;;;0.10;98.80;;;;;;5049600;28;20385;-55
2022/03/06 02:47:21;;;;;;;21.75;10.20;;;0.10;98.80;;;;;;5049549;28;20373;-55
2022/03/06 02:49:47;;;;;;;24.85;11.90;;;0.10;98.70;;;;;;5052671;28;20731;-55
2022/03/06 02:52:13;;;;;;;21.85;9.90;;;0.10;98.80;;;;;;5056181;28;20385;-55
2022/03/06 02:54:38;;;;;;;21.27;10.98;;;0.00;98.80;;;;;;5066267;28;20856;-55
2022/03/06 02:57:06;;;;;;;22.20;10.70;;;0.00;99.10;;;;;;5057232;28;20373;-55
2022/03/06 02:59:31;;;;;;;22.50;10.48;;;1.20;99.40;;;;;;5055873;28;20389;-55
2022/03/06 03:01:57;;;;;;;20.63;10.50;;;-0.20;98.80;;;;;;5056292;28;20479;-55
2022/03/06 03:04:23;;;;;;;23.98;11.10;;;-0.30;99.00;;;;;;5055668;28;20971;-55
2022/03/06 03:06:50;;;;;;;24.77;11.52;;;-0.40;99.60;;;;;;5055975;28;20389;-55
2022/03/06 03:09:19;;;;;;;22.20;11.23;;;0.40;99.90;;;;;;5056418;28;20420;-54
2022/03/06 03:11:46;;;;;;;27.95;12.20;;;-0.50;99.90;;;;;;5055606;28;20378;-55
2022/03/06 03:14:13;;;;;;;23.33;10.82;;;-0.50;99.90;;;;;;5055993;28;20936;-55
2022/03/06 03:16:39;;;;;;;22.40;10.80;;;-0.50;99.90;;;;;;5055772;28;20389;-55
2022/03/06 03:19:05;;;;;;;21.35;10.13;;;-0.60;99.90;;;;;;5055440;28;20404;-54
2022/03/06 03:21:31;;;;;;;23.88;11.00;;;-0.60;99.90;;;;;;5054563;28;20385;-55
2022/03/06 03:23:57;;;;;;;23.60;11.00;;;-0.60;99.90;;;;;;5056910;28;20385;-55
2022/03/06 03:26:23;;;;;;;23.10;10.87;;;-0.70;99.90;;;;;;5055981;28;20373;-55
2022/03/06 03:28:48;;;;;;;23.77;11.10;;;-0.80;99.90;;;;;;5056229;28;20415;-55
2022/03/06 03:31:14;;;;;;;21.17;9.57;;;-1.00;99.90;;;;;;5055707;28;20463;-55
2022/03/06 03:33:43;;;;;;;21.85;10.30;;;-1.10;99.90;;;;;;5055673;28;20401;-55
2022/03/06 03:36:09;;;;;;;21.65;10.57;;;-1.20;99.90;;;;;;5055935;28;20382;-55
2022/03/06 03:38:34;;;;;;;21.10;9.90;;;-1.40;99.90;;;;;;5055590;28;20850;-57
2022/03/06 03:41:01;;;;;;;24.45;10.75;;;-1.50;99.90;;;;;;5056133;28;20398;-57
2022/03/06 03:43:27;;;;;;;21.10;10.60;;;-1.60;99.90;;;;;;5054972;28;20417;-57
2022/03/06 03:45:53;;;;;;;21.80;10.88;;;-0.80;99.90;;;;;;5056371;28;20862;-57
2022/03/06 03:48:19;;;;;;;21.23;10.15;;;-1.70;99.90;;;;;;5055986;28;20404;-57
2022/03/06 03:50:44;;;;;;;23.75;9.80;;;-1.70;99.90;;;;;;5055198;28;20719;-57
2022/03/06 03:53:10;;;;;;;21.63;10.87;;;-1.80;99.90;;;;;;5063322;28;20411;-57
2022/03/06 03:55:36;;;;;;;19.20;9.17;;;-1.80;99.90;;;;;;5059500;28;20384;-57
2022/03/06 03:58:02;;;;;;;21.35;10.65;;;-1.90;99.90;;;;;;5055924;28;20385;-57
2022/03/06 04:00:27;;;;;;;22.60;10.15;;;-1.90;99.90;;;;;;5054904;28;20381;-57
2022/03/06 04:02:53;;;;;;;22.23;10.07;;;-1.70;99.90;;;;;;5052502;28;20843;-57
2022/03/06 04:05:19;;;;;;;21.63;10.50;;;-1.90;99.90;;;;;;5066896;28;20405;-57
2022/03/06 04:07:44;;;;;;;21.63;9.77;;;-1.80;99.90;;;;;;5054268;28;20436;-57
2022/03/06 04:10:10;;;;;;;23.70;10.93;;;-1.80;99.90;;;;;;5072561;28;20379;-58
2022/03/06 04:12:35;;;;;;;25.47;11.70;;;-1.60;99.90;;;;;;5071915;28;20457;-58
2022/03/06 04:15:01;;;;;;;23.53;11.70;;;-1.40;99.90;;;;;;5059973;28;20492;-54
2022/03/06 04:17:27;;;;;;;23.33;10.68;;;-1.40;99.90;;;;;;5069212;28;20402;-55
2022/03/06 04:19:52;;;;;;;21.37;9.50;;;-1.20;99.90;;;;;;5052368;28;20882;-55
2022/03/06 04:22:18;;;;;;;22.50;10.07;;;-1.20;99.90;;;;;;5071884;28;20473;-54
2022/03/06 04:24:44;;;;;;;22.95;11.30;;;-0.70;99.90;;;;;;5071790;28;20394;-55
2022/03/06 04:27:10;;;;;;;21.55;10.48;;;-1.50;99.90;;;;;;5072030;28;20416;-57
2022/03/06 04:29:35;;;;;;;26.27;12.00;;;-1.50;99.90;;;;;;5071290;28;20403;-57
2022/03/06 04:32:01;;;;;;;24.83;11.73;;;-1.50;99.90;;;;;;5071978;28;20387;-57
2022/03/06 04:34:27;;;;;;;21.77;11.07;;;-1.70;99.90;;;;;;5071261;28;20402;-57
2022/03/06 04:36:52;;;;;;;22.83;10.70;;;-1.70;99.90;;;;;;5071920;28;20406;-56
2022/03/06 04:39:18;;;;;;;24.70;11.50;;;-1.80;99.90;;;;;;5071975;28;20407;-57
2022/03/06 04:41:43;;;;;;;26.93;10.97;;;-1.90;99.90;;;;;;5071439;28;20399;-57
2022/03/06 04:44:09;;;;;;;25.42;10.98;;;-1.90;99.90;;;;;;5057701;28;20884;-58
2022/03/06 04:46:35;;;;;;;23.53;10.40;;;-1.90;99.90;;;;;;5070576;28;20415;-58
2022/03/06 04:49:00;;;;;;;24.90;11.30;;;-2.00;99.90;;;;;;5051983;28;20488;-57
2022/03/06 04:51:26;;;;;;;24.65;10.65;;;-1.90;99.90;;;;;;5058641;28;20459;-58
2022/03/06 04:53:52;;;;;;;25.80;11.30;;;-0.60;99.90;;;;;;5070912;28;20433;-57
2022/03/06 04:56:17;;;;;;;22.83;11.37;;;-2.20;99.90;;;;;;5071988;28;20710;-56
2022/03/06 04:58:43;;;;;;;24.88;11.30;;;-2.30;99.90;;;;;;5070826;28;20380;-58
2022/03/06 05:01:09;;;;;;;24.25;11.38;;;-2.20;99.90;;;;;;5071404;28;20383;-58
2022/03/06 05:03:34;;;;;;;21.70;10.77;;;-2.10;99.90;;;;;;5071338;28;20469;-58
2022/03/06 05:06:00;;;;;;;24.47;10.77;;;-2.10;99.90;;;;;;5062204;28;20396;-58
2022/03/06 05:08:27;;;;;;;27.38;11.98;;;-2.00;99.90;;;;;;5055406;28;20376;-58
2022/03/06 05:10:54;;;;;;;24.30;11.00;;;-2.10;99.90;;;;;;5056177;28;20380;-57
2022/03/06 05:13:24;;;;;;;22.50;11.00;;;-2.10;99.90;;;;;;5050971;28;20388;-57
2022/03/06 05:15:50;;;;;;;21.40;10.23;;;-2.10;99.90;;;;;;5051185;28;20381;-57
2022/03/06 05:18:15;;;;;;;28.17;11.57;;;-2.10;99.90;;;;;;5051350;28;20736;-57
2022/03/06 05:20:41;;;;;;;24.65;12.00;;;-2.10;99.90;;;;;;5050456;28;20784;-58
2022/03/06 05:23:07;;;;;;;26.17;12.20;;;-2.10;99.90;;;;;;5033109;28;20421;-57
2022/03/06 05:25:33;;;;;;;23.73;11.77;;;-1.30;99.90;;;;;;5050491;28;20412;-58
2022/03/06 05:27:59;;;;;;;25.03;11.20;;;-1.80;99.90;;;;;;5050950;28;20390;-58
2022/03/06 05:30:24;;;;;;;23.63;11.17;;;-1.60;99.90;;;;;;5050699;28;20385;-58
2022/03/06 05:32:50;;;;;;;24.75;11.25;;;-1.80;99.90;;;;;;5049740;28;20392;-57
2022/03/06 05:35:16;;;;;;;25.10;11.85;;;-1.70;99.90;;;;;;5050935;28;20408;-57
2022/03/06 05:37:42;;;;;;;22.58;11.27;;;-1.80;99.90;;;;;;5050240;28;20369;-57
2022/03/06 05:40:08;;;;;;;24.10;11.25;;;-1.70;99.90;;;;;;5050964;28;20839;-57
2022/03/06 05:42:34;;;;;;;22.85;11.10;;;-1.60;99.90;;;;;;5050038;28;20401;-57
2022/03/06 05:45:00;;;;;;;25.38;12.30;;;-0.30;99.90;;;;;;5051128;28;20384;-57
2022/03/06 05:47:25;;;;;;;25.15;11.50;;;-1.60;99.90;;;;;;5053418;28;20484;-57
2022/03/06 05:49:51;;;;;;;21.60;11.50;;;-1.70;99.90;;;;;;5058840;28;20473;-57
2022/03/06 05:52:16;;;;;;;25.43;12.37;;;-1.70;99.90;;;;;;5066317;28;20425;-57
2022/03/06 05:54:42;;;;;;;22.75;11.50;;;-1.80;99.90;;;;;;5064795;28;20748;-57
2022/03/06 05:57:08;;;;;;;25.25;11.45;;;-1.70;99.90;;;;;;5064142;28;20391;-57
2022/03/06 05:59:34;;;;;;;26.40;11.52;;;-1.70;99.90;;;;;;5068712;28;20451;-57
2022/03/06 06:02:00;;;;;;;25.60;11.52;;;-1.60;99.90;;;;;;5066462;28;20776;-55
2022/03/06 06:04:26;;;;;;;24.20;11.13;;;-1.50;99.90;;;;;;5069597;28;20409;-57
2022/03/06 06:06:51;;;;;;;28.07;12.90;;;-1.30;99.90;;;;;;5069802;28;20380;-57
2022/03/06 06:09:17;;;;;;;23.17;11.77;;;-1.30;99.90;;;;;;5070043;28;20917;-57
2022/03/06 06:11:43;;;;;;;25.95;12.43;;;-1.20;99.90;;;;;;5068663;28;20372;-55
2022/03/06 06:14:08;;;;;;;26.83;12.50;;;-1.10;99.90;;;;;;5069743;28;20376;-55
2022/03/06 06:16:34;;;;;;;24.97;12.13;;;-0.90;99.90;;;;;;5068871;28;20384;-56
2022/03/06 06:19:00;;;;;;;26.80;12.73;;;-0.90;99.90;;;;;;5069880;28;20434;-56
2022/03/06 06:21:25;;;;;;;27.87;12.57;;;-0.60;99.90;;;;;;5069664;28;20452;-56
2022/03/06 06:23:51;;;;;;;27.27;12.50;;;-0.30;99.90;;;;;;5067818;28;20399;-55
2022/03/06 06:26:18;;;;;;;24.40;12.75;;;-0.20;99.90;;;;;;5069558;28;20670;-55
2022/03/06 06:28:43;;;;;;;24.25;11.38;;;0.00;99.90;;;;;;5069077;28;20392;-56
2022/03/06 06:31:09;;;;;;;24.70;11.13;;;1.80;99.90;;;;;;5069221;28;20384;-56
2022/03/06 06:33:35;;;;;;;21.52;11.00;;;1.30;99.90;;;;;;5066585;28;20466;-58
2022/03/06 06:36:02;;;;;;;20.05;10.27;;;3.00;99.90;;;;;;5062209;28;20865;-58
2022/03/06 06:38:28;;;;;;;22.52;10.60;;;2.40;99.90;;;;;;5062565;28;20377;-59
2022/03/06 06:40:54;;;;;;;19.70;10.15;;;3.10;99.90;;;;;;5065036;28;20394;-58
2022/03/06 06:43:20;;;;;;;20.55;10.52;;;3.30;99.90;;;;;;5060013;28;20412;-56
2022/03/06 06:45:46;;;;;;;26.63;11.50;;;3.60;99.90;;;;;;5060859;28;20754;-56
2022/03/06 06:48:12;;;;;;;22.42;10.90;;;5.50;99.90;;;;;;5065286;28;20387;-56
2022/03/06 06:50:38;;;;;;;25.53;12.00;;;4.70;98.10;;;;;;5066144;28;20391;-56
2022/03/06 06:53:03;;;;;;;23.38;12.40;;;5.00;96.50;;;;;;5069159;28;20849;-56
2022/03/06 06:55:29;;;;;;;21.80;11.67;;;5.60;95.90;;;;;;5068473;28;20754;-56
2022/03/06 06:57:55;;;;;;;24.05;12.80;;;6.20;94.00;;;;;;5067320;28;20407;-56
2022/03/06 07:00:21;;;;;;;24.08;13.30;;;6.90;92.60;;;;;;5064910;28;20781;-57
2022/03/06 07:02:47;;;;;;;22.87;13.50;;;7.70;90.40;;;;;;5068591;28;20469;-57
2022/03/06 07:05:13;;;;;;;24.23;13.70;;;8.20;85.50;;;;;;5058994;28;20404;-57
2022/03/06 07:07:39;;;;;;;33.10;17.65;;;9.10;81.10;;;;;;5068948;28;20384;-57
2022/03/06 07:10:05;;;;;;;29.50;17.90;;;9.80;75.80;;;;;;5068804;28;20853;-57
2022/03/06 07:12:39;;;;;;;25.00;14.57;;;10.20;70.30;;;;;;5068452;28;20424;-57
2022/03/06 07:15:05;;;;;;;25.80;14.80;;;10.40;68.70;;;;;;5068208;28;20853;-57
2022/03/06 07:17:31;;;;;;;22.05;14.00;;;10.60;65.80;;;;;;5068162;28;20435;-57
2022/03/06 07:19:56;;;;;;;22.57;13.30;;;10.90;64.30;;;;;;5069174;28;20375;-57
2022/03/06 07:22:22;;;;;;;19.95;12.23;;;10.90;62.40;;;;;;5068835;28;20447;-57
2022/03/06 07:24:48;;;;;;;21.87;12.80;;;10.70;61.00;;;;;;5067535;28;20772;-57
2022/03/06 07:27:13;;;;;;;23.13;13.13;;;10.40;61.40;;;;;;5068798;28;20426;-57
2022/03/06 07:29:39;;;;;;;20.23;11.85;;;10.30;63.20;;;;;;5068199;28;20384;-57
2022/03/06 07:32:06;;;;;;;21.13;12.13;;;10.50;61.70;;;;;;5068915;28;20908;-57
2022/03/06 07:34:31;;;;;;;19.97;11.97;;;10.50;60.80;;;;;;5068231;28;20426;-57
2022/03/06 07:36:57;;;;;;;22.55;12.02;;;10.50;60.50;;;;;;5071623;28;20376;-57
2022/03/06 07:39:22;;;;;;;19.10;11.60;;;10.30;59.90;;;;;;5072336;28;20388;-57
2022/03/06 07:41:48;;;;;;;19.90;12.00;;;10.60;60.80;;;;;;5069027;28;20491;-57
2022/03/06 07:44:13;;;;;;;18.98;11.20;;;11.20;60.00;;;;;;5070548;28;20429;-57
2022/03/06 07:46:40;;;;;;;20.40;11.40;;;11.70;58.40;;;;;;5065667;28;20408;-57
2022/03/06 07:49:06;;;;;;;21.13;12.20;;;11.40;56.50;;;;;;5066683;28;20799;-57
2022/03/06 07:51:32;;;;;;;20.77;12.20;;;11.20;57.70;;;;;;5071774;28;20466;-57
2022/03/06 07:53:57;;;;;;;22.42;12.68;;;11.60;56.60;;;;;;5072876;28;20379;-57
2022/03/06 07:56:23;;;;;;;21.35;12.52;;;11.00;56.80;;;;;;5072361;28;20685;-57
2022/03/06 07:58:48;;;;;;;21.77;12.00;;;11.30;56.90;;;;;;5067673;28;20409;-57
2022/03/06 08:01:14;;;;;;;19.88;11.23;;;11.40;55.50;;;;;;5060008;28;20401;-57
2022/03/06 08:03:40;;;;;;;20.33;12.63;;;10.90;56.00;;;;;;5070094;28;20909;-55
2022/03/06 08:06:05;;;;;;;20.07;11.33;;;11.00;56.70;;;;;;5074743;28;20407;-55
2022/03/06 08:08:31;;;;;;;19.05;10.88;;;11.10;56.40;;;;;;5072051;28;20388;-55
2022/03/06 08:10:56;;;;;;;19.85;11.75;;;11.60;56.50;;;;;;5070829;28;20495;-55
2022/03/06 08:13:22;;;;;;;20.03;12.10;;;12.10;54.80;;;;;;5068698;28;20403;-60
2022/03/06 08:15:48;;;;;;;19.75;11.25;;;12.30;54.40;;;;;;5069481;28;20864;-57
2022/03/06 08:18:13;;;;;;;21.40;12.57;;;12.60;54.40;;;;;;5070749;28;20395;-55
2022/03/06 08:20:39;;;;;;;20.23;12.70;;;13.00;53.30;;;;;;5073376;28;20735;-55
2022/03/06 08:23:04;;;;;;;22.48;13.85;;;12.70;53.50;;;;;;5070910;28;20423;-55
2022/03/06 08:25:30;;;;;;;21.58;13.18;;;12.40;53.70;;;;;;5070994;28;20425;-59
2022/03/06 08:27:56;;;;;;;24.57;13.43;;;12.70;53.30;;;;;;5053078;28;20391;-55
2022/03/06 08:30:21;;;;;;;21.83;13.75;;;13.20;52.80;;;;;;5053597;28;20464;-55
2022/03/06 08:32:47;;;;;;;24.17;15.13;;;13.60;52.20;;;;;;5070660;28;20375;-55
2022/03/06 08:35:13;;;;;;;22.23;14.03;;;14.30;50.70;;;;;;5070535;28;20876;-55
2022/03/06 08:37:38;;;;;;;27.40;16.75;;;14.50;50.40;;;;;;5072202;28;20381;-56
2022/03/06 08:40:05;;;;;;;21.47;14.07;;;14.60;49.10;;;;;;5070818;28;20460;-55
2022/03/06 08:42:31;;;;;;;22.85;15.50;;;13.20;48.60;;;;;;5070370;28;20437;-55
2022/03/06 08:44:57;;;;;;;20.58;13.90;;;13.10;49.10;;;;;;5073625;28;20897;-54
2022/03/06 08:47:23;;;;;;;21.63;13.77;;;12.60;49.90;;;;;;5072919;28;20415;-55
2022/03/06 08:49:48;;;;;;;20.42;13.18;;;12.30;50.30;;;;;;5071843;28;20498;-55
2022/03/06 08:52:14;;;;;;;20.00;13.23;;;12.90;50.10;;;;;;5069099;28;20408;-56
2022/03/06 08:54:39;;;;;;;24.05;13.18;;;13.50;49.10;;;;;;5066536;28;20900;-55
2022/03/06 08:57:05;;;;;;;20.73;12.10;;;14.10;48.60;;;;;;5064577;28;20392;-58
2022/03/06 08:59:31;;;;;;;19.90;14.60;;;14.70;48.40;;;;;;5067309;28;20449;-60
2022/03/06 09:01:57;;;;;;;22.92;17.05;;;15.00;47.30;;;;;;5065939;28;20755;-55
2022/03/06 09:04:24;;;;;;;21.25;16.17;;;15.80;45.60;;;;;;5062239;28;20420;-57
2022/03/06 09:06:50;;;;;;;22.65;16.90;;;15.60;44.40;;;;;;5067052;28;20845;-56
2022/03/06 09:09:16;;;;;;;20.30;11.65;;;14.80;44.40;;;;;;5064002;28;20399;-58
2022/03/06 09:11:42;;;;;;;21.67;12.18;;;13.50;45.80;;;;;;5061639;28;20487;-58
2022/03/06 09:14:08;;;;;;;21.10;12.43;;;13.10;46.20;;;;;;5065450;28;20476;-57
2022/03/06 09:16:34;;;;;;;21.38;12.50;;;12.80;46.90;;;;;;5064746;28;20488;-58
2022/03/06 09:19:01;;;;;;;22.00;12.90;;;13.60;47.70;;;;;;5063807;28;21868;-58
2022/03/06 09:21:27;;;;;;;20.13;12.60;;;14.80;46.30;;;;;;5057229;28;20439;-58
2022/03/06 09:23:53;;;;;;;20.98;12.82;;;15.00;45.00;;;;;;5063311;28;20860;-58
2022/03/06 09:26:19;;;;;;;21.27;12.68;;;15.40;45.20;;;;;;5069534;28;20386;-58
2022/03/06 09:28:44;;;;;;;20.10;11.87;;;15.40;44.20;;;;;;5061745;28;20395;-57
2022/03/06 09:31:12;;;;;;;20.95;12.90;;;15.10;43.70;;;;;;5060480;28;20479;-57
2022/03/06 09:33:38;;;;;;;21.27;13.88;;;15.50;43.90;;;;;;5052855;28;20397;-57
2022/03/06 09:36:04;;;;;;;19.40;11.87;;;15.90;43.40;;;;;;5057713;28;20497;-57
2022/03/06 09:38:30;;;;;;;20.90;11.45;;;15.60;41.80;;;;;;5061687;28;20437;-58
2022/03/06 09:40:59;;;;;;;21.30;11.82;;;15.60;42.00;;;;;;5059943;28;20431;-57
2022/03/06 09:43:26;;;;;;;21.40;11.75;;;15.60;41.40;;;;;;5053923;28;20416;-57
2022/03/06 09:46:01;;;;;;;20.17;12.57;;;14.80;42.30;;;;;;5056555;28;20405;-58
2022/03/06 09:48:29;;;;;;;21.97;12.80;;;14.30;43.00;;;;;;5063960;28;20399;-57
2022/03/06 09:50:56;;;;;;;20.17;12.52;;;14.90;42.90;;;;;;5064323;28;20380;-58
2022/03/06 09:53:22;;;;;;;24.80;15.50;;;15.70;42.40;;;;;;5072245;28;20515;-58
2022/03/06 09:55:50;;;;;;;20.85;12.23;;;15.50;41.70;;;;;;5069688;28;20494;-58
2022/03/06 09:58:16;;;;;;;22.13;12.70;;;14.80;41.70;;;;;;5069046;28;20390;-57
2022/03/06 10:00:42;;;;;;;24.37;13.90;;;14.70;43.00;;;;;;5069981;28;20384;-58
2022/03/06 10:03:15;;;;;;;21.08;13.05;;;15.20;42.50;;;;;;5070277;28;20411;-58
2022/03/06 10:05:41;;;;;;;19.48;12.80;;;15.50;42.20;;;;;;5069635;28;20453;-58
2022/03/06 10:08:27;;;;;;;23.30;14.23;;;15.60;41.80;;;;;;5069973;28;20380;-58
2022/03/06 10:11:07;;;;;;;19.50;14.20;;;15.60;41.60;;;;;;5070048;28;20444;-58
2022/03/06 10:13:36;;;;;;;23.13;15.30;;;16.00;42.00;;;;;;5069710;28;20384;-58
2022/03/06 10:16:09;;;;;;;22.92;14.23;;;16.10;40.10;;;;;;5070078;28;20474;-58
2022/03/06 10:18:50;;;;;;;20.80;13.55;;;14.40;41.10;;;;;;5069232;28;20402;-57
2022/03/06 10:21:18;;;;;;;20.93;11.40;;;14.00;41.30;;;;;;5069955;28;20477;-55
2022/03/06 10:23:46;;;;;;;22.98;12.00;;;12.90;41.40;;;;;;5069444;28;20765;-56
2022/03/06 10:26:20;;;;;;;20.05;10.75;;;12.00;42.00;;;;;;5070138;28;20384;-57
2022/03/06 10:28:56;;;;;;;20.23;10.68;;;10.50;43.60;;;;;;5069443;28;20368;-58
2022/03/06 10:31:23;;;;;;;19.33;10.40;;;9.50;46.40;;;;;;5070369;28;20850;-56
2022/03/06 10:34:03;;;;;;;19.52;10.52;;;8.60;47.00;;;;;;5069487;28;20375;-56
2022/03/06 10:36:51;;;;;;;21.37;11.17;;;7.80;47.40;;;;;;5070027;28;20435;-56
2022/03/06 10:39:19;;;;;;;21.45;10.90;;;7.40;49.20;;;;;;5069413;28;20799;-56
2022/03/06 10:41:50;;;;;;;21.25;11.18;;;7.20;49.60;;;;;;5051230;28;20758;-56
2022/03/06 10:44:17;;;;;;;23.05;11.88;;;7.40;50.10;;;;;;5069548;28;20480;-56
2022/03/06 10:47:17;;;;;;;19.38;10.68;;;7.30;49.00;;;;;;5069160;28;20383;-56
2022/03/06 10:50:02;;;;;;;19.90;9.60;;;7.50;48.40;;;;;;5013243;28;20976;-56
2022/03/06 10:52:27;;;;;;;17.27;9.40;;;7.50;47.60;;;;;;5069565;28;20397;-56
2022/03/06 10:54:56;;;;;;;17.80;9.30;;;7.50;47.70;;;;;;5068457;28;20379;-57
2022/03/06 10:57:23;;;;;;;18.15;9.50;;;7.30;47.00;;;;;;5069973;28;20399;-56
2022/03/06 10:59:49;;;;;;;19.25;9.38;;;7.30;46.90;;;;;;5068983;28;20384;-56
2022/03/06 11:02:16;;;;;;;16.75;8.52;;;7.20;47.10;;;;;;5069484;28;20484;-56
2022/03/06 11:04:46;;;;;;;17.23;9.20;;;8.00;47.80;;;;;;5069223;28;20375;-58
2022/03/06 11:07:12;;;;;;;18.15;8.85;;;9.10;46.70;;;;;;5069592;28;20376;-58
2022/03/06 11:09:39;;;;;;;19.85;9.88;;;10.30;42.60;;;;;;5068438;28;20442;-56
2022/03/06 11:12:05;;;;;;;17.27;9.23;;;10.70;42.00;;;;;;5072627;28;20375;-56
2022/03/06 11:14:32;;;;;;;17.10;9.18;;;10.90;41.10;;;;;;5072986;28;20469;-57
2022/03/06 11:16:58;;;;;;;17.00;9.02;;;11.60;40.90;;;;;;5055222;28;20430;-56
2022/03/06 11:19:25;;;;;;;17.48;9.43;;;12.20;39.90;;;;;;5073680;28;20845;-58
2022/03/06 11:21:59;;;;;;;17.63;9.50;;;11.00;40.10;;;;;;5072472;28;20402;-56
2022/03/06 11:24:28;;;;;;;18.67;10.00;;;11.40;40.20;;;;;;5073219;28;20384;-56
2022/03/06 11:27:37;;;;;;;18.02;9.35;;;12.60;39.80;;;;;;5072613;28;20403;-56
2022/03/06 11:30:20;;;;;;;17.33;9.90;;;13.90;39.30;;;;;;5073133;28;20887;-56
2022/03/06 11:33:19;;;;;;;18.20;9.82;;;11.40;38.80;;;;;;5072376;28;20916;-56
2022/03/06 11:35:45;;;;;;;16.88;9.85;;;10.80;39.90;;;;;;5027989;28;20873;-56
2022/03/06 11:38:13;;;;;;;19.50;9.93;;;10.60;40.40;;;;;;5073362;28;20382;-56
2022/03/06 11:40:44;;;;;;;16.85;9.40;;;9.90;41.80;;;;;;5072371;28;20375;-57
2022/03/06 11:43:31;;;;;;;16.52;9.27;;;9.60;42.40;;;;;;5072735;28;20564;-56
2022/03/06 11:46:21;;;;;;;14.85;8.35;;;9.40;41.90;;;;;;5073030;28;20387;-56
2022/03/06 11:48:46;;;;;;;13.53;8.17;;;9.30;42.00;;;;;;5072236;28;20402;-56
2022/03/06 11:51:15;;;;;;;16.70;8.80;;;8.80;41.80;;;;;;5072435;28;20819;-57
2022/03/06 11:53:57;;;;;;;16.85;8.90;;;8.40;42.50;;;;;;5071713;28;20387;-56
2022/03/06 11:56:32;;;;;;;17.92;8.90;;;8.30;43.60;;;;;;5072583;28;20430;-56
2022/03/06 11:59:04;;;;;;;15.63;8.57;;;8.40;43.30;;;;;;5072707;28;20481;-56
2022/03/06 12:01:41;;;;;;;15.15;8.63;;;8.50;42.80;;;;;;5073059;28;20683;-56
2022/03/06 12:04:06;;;;;;;16.97;8.80;;;8.90;43.00;;;;;;5072275;28;20383;-58
2022/03/06 12:06:44;;;;;;;16.05;9.50;;;9.40;42.90;;;;;;5072157;28;20902;-59
2022/03/06 12:09:17;;;;;;;17.58;8.90;;;9.90;42.30;;;;;;5072272;28;20376;-58
2022/03/06 12:11:44;;;;;;;16.65;8.35;;;9.70;42.00;;;;;;5071735;28;20877;-59
2022/03/06 12:14:20;;;;;;;14.60;8.38;;;9.70;41.70;;;;;;5072226;28;20386;-58
2022/03/06 12:17:06;;;;;;;18.25;9.18;;;9.90;42.70;;;;;;5071750;28;20379;-58
2022/03/06 12:19:54;;;;;;;17.23;9.32;;;10.30;41.10;;;;;;5072317;28;20396;-58
2022/03/06 12:22:33;;;;;;;16.50;8.80;;;11.00;40.90;;;;;;5070334;28;20419;-58
2022/03/06 12:25:08;;;;;;;13.90;7.72;;;11.10;40.80;;;;;;5072261;28;20364;-55
2022/03/06 12:27:36;;;;;;;15.57;8.40;;;11.20;39.60;;;;;;5071443;28;20470;-58
2022/03/06 12:30:05;;;;;;;14.13;7.93;;;10.90;39.70;;;;;;5072137;28;20458;-58
2022/03/06 12:32:31;;;;;;;16.30;9.30;;;10.80;39.80;;;;;;5072069;28;20442;-58